Huvudsida
METAR-TAF:

METAR-TAF

Flygplatser :

Chevak, Alaska, USA

latitud: 61-32-27N, longitud: 165-36-03W, höjd: 23 m

Aktuellt väderrapport

Denna rapport gjordes för 42 minuter sedan, klockan 16:56 UTC
Vind 4 kt från nord
Temperatur 4°C
Fuktighet 93%
Tryck 1027 hPa
Sikt: 16.1 km
Mulet på en höjd av 400 ft

METAR: PAVA 141656Z AUTO 01004KT 10SM OVC004 04/03 A3033 RMK AO2 SLP274 T00390033 PNO $

Tid: 09:38 (17:38 UTC)


TAF: saknas

Aktuella väderrapporter och prognoser från 4000 flygplatser (METAR- och TAF-rapporter).

De tillgängliga stationerna syns som gula och röda prickar på kartan.

För musen över prickarna för att se namnen på stationerna.

Klicka sedan för att få väderrapporter och prognoser.

För att ändra kartan: Klicka på de gröna knapparna med ett svart kors på för att zooma in; den gröna knappen med ett streck på för att zooma ut; eller på de gröna pilarna för angränsande kartor.


METAR-TAF: